CheckWX is a tool to help pilots better visualize weather data.  It is not intended as a substitute for an official pre-flight weather briefing.

14:14:44 UTC

ETHN METAR
Niederstetten Airport
Niederstetten, Germany
Current

55 mins ago

ETHN 261320Z 27011KT 9999 -RA BKN007 BKN018 OVC032 07/06 Q1015 GRN
Observed
Apr-26 @ 13:20 UTC
Wind
  • 270° at 11 KTS
Visibility
10,000+ meters
Flight Rules
IFR
Conditions
Light Rain
Cloud Levels
  • Broken at 700' AGL
  • Broken at 1,800' AGL
  • Overcast at 3,200' AGL
Temperature
C / 45°F
Dewpoint
C / 43°F
Humidity
93%
Altimeter
29.97" Hg
Pressure
1014.92 hPa
Previous

2 hours ago

ETHN 261220Z 26011KT 9000 -RA BKN007 BKN018 OVC045 07/06 Q1014 GRN
Observed
Apr-26 @ 12:20 UTC
Wind
  • 260° at 11 KTS
Visibility
8,996 meters
Flight Rules
IFR
Conditions
Light Rain
Cloud Levels
  • Broken at 700' AGL
  • Broken at 1,800' AGL
  • Overcast at 4,500' AGL
Temperature
C / 45°F
Dewpoint
C / 43°F
Humidity
93%
Altimeter
29.94" Hg
Pressure
1013.92 hPa
Previous

3 hours ago

ETHN 261120Z 27010KT 9999 -RA BKN007 BKN022 OVC060 08/06 Q1014 RERA GRN
Observed
Apr-26 @ 11:20 UTC
Wind
  • 270° at 10 KTS
Visibility
10,000+ meters
Flight Rules
IFR
Conditions
Light Rain
Cloud Levels
  • Broken at 700' AGL
  • Broken at 2,200' AGL
  • Overcast at 6,000' AGL
Temperature
C / 46°F
Dewpoint
C / 43°F
Humidity
87%
Altimeter
29.94" Hg
Pressure
1013.92 hPa